<?xml version="1.0" encoding="UTF-8" standalone="no" ?>
<gpx xmlns="http://www.topografix.com/GPX/1/1" xmlns:xsi="http://www.w3.org/2001/XMLSchema-instance" xsi:schemaLocation="http://www.topografix.com/GPX/1/1 http://www.topografix.com/GPX/1/1/gpx.xsd" version="1.1" creator="VisuGPX - https://www.visugpx.com">
  <metadata>
    <name>Un bout de truc dans la Valmasque</name>
    <desc><![CDATA[De nuit....]]></desc>
  </metadata>
  <trk>
    <name><![CDATA[8 sept. 2011 21:47:17]]></name>
    <cmt><![CDATA[Valmasque by night]]></cmt>
    <trkseg>
      <trkpt lat="43.63452" lon="7.05001">
        <ele>57</ele>
        <time>2011-09-08T19:47:18Z</time>
      </trkpt>
      <trkpt lat="43.63445" lon="7.05067">
        <ele>59</ele>
        <time>2011-09-08T19:47:42Z</time>
      </trkpt>
      <trkpt lat="43.63434" lon="7.05089">
        <ele>60</ele>
        <time>2011-09-08T19:47:47Z</time>
      </trkpt>
      <trkpt lat="43.63393" lon="7.05135">
        <ele>63</ele>
        <time>2011-09-08T19:48:02Z</time>
      </trkpt>
      <trkpt lat="43.63379" lon="7.05147">
        <ele>63</ele>
        <time>2011-09-08T19:48:07Z</time>
      </trkpt>
      <trkpt lat="43.63364" lon="7.05154">
        <ele>64</ele>
        <time>2011-09-08T19:48:12Z</time>
      </trkpt>
      <trkpt lat="43.63338" lon="7.05147">
        <ele>66</ele>
        <time>2011-09-08T19:48:20Z</time>
      </trkpt>
      <trkpt lat="43.63317" lon="7.05112">
        <ele>70</ele>
        <time>2011-09-08T19:48:31Z</time>
      </trkpt>
      <trkpt lat="43.63307" lon="7.05074">
        <ele>70</ele>
        <time>2011-09-08T19:48:41Z</time>
      </trkpt>
      <trkpt lat="43.63304" lon="7.05059">
        <ele>71</ele>
        <time>2011-09-08T19:48:45Z</time>
      </trkpt>
      <trkpt lat="43.63299" lon="7.0503">
        <ele>71</ele>
        <time>2011-09-08T19:48:53Z</time>
      </trkpt>
      <trkpt lat="43.63295" lon="7.05013">
        <ele>72</ele>
        <time>2011-09-08T19:48:58Z</time>
      </trkpt>
      <trkpt lat="43.63292" lon="7.04992">
        <ele>72</ele>
        <time>2011-09-08T19:49:04Z</time>
      </trkpt>
      <trkpt lat="43.6329" lon="7.04975">
        <ele>74</ele>
        <time>2011-09-08T19:49:09Z</time>
      </trkpt>
      <trkpt lat="43.63286" lon="7.04952">
        <ele>75</ele>
        <time>2011-09-08T19:49:15Z</time>
      </trkpt>
      <trkpt lat="43.63284" lon="7.0494">
        <ele>77</ele>
        <time>2011-09-08T19:49:19Z</time>
      </trkpt>
      <trkpt lat="43.63285" lon="7.04927">
        <ele>77</ele>
        <time>2011-09-08T19:49:24Z</time>
      </trkpt>
      <trkpt lat="43.63298" lon="7.04921">
        <ele>81</ele>
        <time>2011-09-08T19:49:33Z</time>
      </trkpt>
      <trkpt lat="43.63325" lon="7.04896">
        <ele>85</ele>
        <time>2011-09-08T19:49:51Z</time>
      </trkpt>
      <trkpt lat="43.63316" lon="7.04873">
        <ele>91</ele>
        <time>2011-09-08T19:50:02Z</time>
      </trkpt>
      <trkpt lat="43.6331" lon="7.04861">
        <ele>93</ele>
        <time>2011-09-08T19:50:07Z</time>
      </trkpt>
      <trkpt lat="43.63293" lon="7.04829">
        <ele>95</ele>
        <time>2011-09-08T19:50:21Z</time>
      </trkpt>
      <trkpt lat="43.63281" lon="7.04803">
        <ele>100</ele>
        <time>2011-09-08T19:50:34Z</time>
      </trkpt>
      <trkpt lat="43.63284" lon="7.04777">
        <ele>101</ele>
        <time>2011-09-08T19:50:45Z</time>
      </trkpt>
      <trkpt lat="43.63287" lon="7.04742">
        <ele>106</ele>
        <time>2011-09-08T19:50:59Z</time>
      </trkpt>
      <trkpt lat="43.63296" lon="7.04696">
        <ele>108</ele>
        <time>2011-09-08T19:51:12Z</time>
      </trkpt>
      <trkpt lat="43.63322" lon="7.04633">
        <ele>108</ele>
        <time>2011-09-08T19:51:31Z</time>
      </trkpt>
      <trkpt lat="43.6334" lon="7.04608">
        <ele>112</ele>
        <time>2011-09-08T19:51:39Z</time>
      </trkpt>
      <trkpt lat="43.63351" lon="7.04591">
        <ele>113</ele>
        <time>2011-09-08T19:51:44Z</time>
      </trkpt>
      <trkpt lat="43.63358" lon="7.0457">
        <ele>113</ele>
        <time>2011-09-08T19:51:51Z</time>
      </trkpt>
      <trkpt lat="43.63358" lon="7.04547">
        <ele>114</ele>
        <time>2011-09-08T19:51:57Z</time>
      </trkpt>
      <trkpt lat="43.63356" lon="7.04523">
        <ele>115</ele>
        <time>2011-09-08T19:52:02Z</time>
      </trkpt>
      <trkpt lat="43.63353" lon="7.04495">
        <ele>115</ele>
        <time>2011-09-08T19:52:08Z</time>
      </trkpt>
      <trkpt lat="43.63347" lon="7.04431">
        <ele>118</ele>
        <time>2011-09-08T19:52:22Z</time>
      </trkpt>
      <trkpt lat="43.63341" lon="7.04409">
        <ele>118</ele>
        <time>2011-09-08T19:52:27Z</time>
      </trkpt>
      <trkpt lat="43.6331" lon="7.04348">
        <ele>124</ele>
        <time>2011-09-08T19:52:43Z</time>
      </trkpt>
      <trkpt lat="43.63298" lon="7.0433">
        <ele>124</ele>
        <time>2011-09-08T19:52:49Z</time>
      </trkpt>
      <trkpt lat="43.63258" lon="7.04289">
        <ele>131</ele>
        <time>2011-09-08T19:53:10Z</time>
      </trkpt>
      <trkpt lat="43.63245" lon="7.04277">
        <ele>131</ele>
        <time>2011-09-08T19:53:16Z</time>
      </trkpt>
      <trkpt lat="43.63232" lon="7.04256">
        <ele>134</ele>
        <time>2011-09-08T19:53:25Z</time>
      </trkpt>
      <trkpt lat="43.63214" lon="7.04217">
        <ele>137</ele>
        <time>2011-09-08T19:53:38Z</time>
      </trkpt>
      <trkpt lat="43.63186" lon="7.04163">
        <ele>149</ele>
        <time>2011-09-08T19:54:01Z</time>
      </trkpt>
      <trkpt lat="43.63176" lon="7.04144">
        <ele>150</ele>
        <time>2011-09-08T19:54:07Z</time>
      </trkpt>
      <trkpt lat="43.63115" lon="7.04058">
        <ele>165</ele>
        <time>2011-09-08T19:54:40Z</time>
      </trkpt>
      <trkpt lat="43.63103" lon="7.04042">
        <ele>165</ele>
        <time>2011-09-08T19:54:44Z</time>
      </trkpt>
      <trkpt lat="43.63091" lon="7.04026">
        <ele>166</ele>
        <time>2011-09-08T19:54:48Z</time>
      </trkpt>
      <trkpt lat="43.63077" lon="7.04006">
        <ele>166</ele>
        <time>2011-09-08T19:54:53Z</time>
      </trkpt>
      <trkpt lat="43.63054" lon="7.03978">
        <ele>168</ele>
        <time>2011-09-08T19:55:01Z</time>
      </trkpt>
      <trkpt lat="43.6305" lon="7.03952">
        <ele>171</ele>
        <time>2011-09-08T19:55:06Z</time>
      </trkpt>
      <trkpt lat="43.63069" lon="7.03917">
        <ele>173</ele>
        <time>2011-09-08T19:55:13Z</time>
      </trkpt>
      <trkpt lat="43.63099" lon="7.03866">
        <ele>173</ele>
        <time>2011-09-08T19:55:26Z</time>
      </trkpt>
      <trkpt lat="43.63105" lon="7.03845">
        <ele>170</ele>
        <time>2011-09-08T19:55:31Z</time>
      </trkpt>
      <trkpt lat="43.63107" lon="7.03816">
        <ele>167</ele>
        <time>2011-09-08T19:55:38Z</time>
      </trkpt>
      <trkpt lat="43.63104" lon="7.03791">
        <ele>166</ele>
        <time>2011-09-08T19:55:44Z</time>
      </trkpt>
      <trkpt lat="43.63093" lon="7.03771">
        <ele>166</ele>
        <time>2011-09-08T19:55:50Z</time>
      </trkpt>
      <trkpt lat="43.6308" lon="7.03758">
        <ele>166</ele>
        <time>2011-09-08T19:55:56Z</time>
      </trkpt>
      <trkpt lat="43.63066" lon="7.03746">
        <ele>168</ele>
        <time>2011-09-08T19:56:04Z</time>
      </trkpt>
      <trkpt lat="43.63052" lon="7.03733">
        <ele>167</ele>
        <time>2011-09-08T19:56:13Z</time>
      </trkpt>
      <trkpt lat="43.63039" lon="7.03722">
        <ele>167</ele>
        <time>2011-09-08T19:56:22Z</time>
      </trkpt>
      <trkpt lat="43.62981" lon="7.03677">
        <ele>174</ele>
        <time>2011-09-08T19:56:55Z</time>
      </trkpt>
      <trkpt lat="43.62966" lon="7.03664">
        <ele>174</ele>
        <time>2011-09-08T19:57:03Z</time>
      </trkpt>
      <trkpt lat="43.62884" lon="7.03613">
        <ele>184</ele>
        <time>2011-09-08T19:57:37Z</time>
      </trkpt>
      <trkpt lat="43.62867" lon="7.03604">
        <ele>185</ele>
        <time>2011-09-08T19:57:44Z</time>
      </trkpt>
      <trkpt lat="43.6285" lon="7.03598">
        <ele>185</ele>
        <time>2011-09-08T19:57:50Z</time>
      </trkpt>
      <trkpt lat="43.62836" lon="7.03586">
        <ele>186</ele>
        <time>2011-09-08T19:57:57Z</time>
      </trkpt>
      <trkpt lat="43.62837" lon="7.03557">
        <ele>188</ele>
        <time>2011-09-08T19:58:04Z</time>
      </trkpt>
      <trkpt lat="43.62846" lon="7.03532">
        <ele>185</ele>
        <time>2011-09-08T19:58:08Z</time>
      </trkpt>
      <trkpt lat="43.62896" lon="7.03431">
        <ele>172</ele>
        <time>2011-09-08T19:58:26Z</time>
      </trkpt>
      <trkpt lat="43.62901" lon="7.0342">
        <ele>172</ele>
        <time>2011-09-08T19:58:28Z</time>
      </trkpt>
      <trkpt lat="43.62902" lon="7.03397">
        <ele>168</ele>
        <time>2011-09-08T19:58:40Z</time>
      </trkpt>
      <trkpt lat="43.62899" lon="7.03384">
        <ele>168</ele>
        <time>2011-09-08T19:58:43Z</time>
      </trkpt>
      <trkpt lat="43.62897" lon="7.03367">
        <ele>167</ele>
        <time>2011-09-08T19:58:46Z</time>
      </trkpt>
      <trkpt lat="43.62895" lon="7.03342">
        <ele>167</ele>
        <time>2011-09-08T19:58:50Z</time>
      </trkpt>
      <trkpt lat="43.62889" lon="7.03316">
        <ele>166</ele>
        <time>2011-09-08T19:58:56Z</time>
      </trkpt>
      <trkpt lat="43.62867" lon="7.03282">
        <ele>169</ele>
        <time>2011-09-08T19:59:13Z</time>
      </trkpt>
      <trkpt lat="43.6285" lon="7.03255">
        <ele>169</ele>
        <time>2011-09-08T19:59:26Z</time>
      </trkpt>
      <trkpt lat="43.6285" lon="7.03231">
        <ele>169</ele>
        <time>2011-09-08T19:59:33Z</time>
      </trkpt>
      <trkpt lat="43.62855" lon="7.03208">
        <ele>169</ele>
        <time>2011-09-08T19:59:40Z</time>
      </trkpt>
      <trkpt lat="43.62864" lon="7.03185">
        <ele>168</ele>
        <time>2011-09-08T19:59:48Z</time>
      </trkpt>
      <trkpt lat="43.62882" lon="7.03134">
        <ele>162</ele>
        <time>2011-09-08T20:00:02Z</time>
      </trkpt>
      <trkpt lat="43.62884" lon="7.03108">
        <ele>162</ele>
        <time>2011-09-08T20:00:07Z</time>
      </trkpt>
      <trkpt lat="43.62881" lon="7.03086">
        <ele>163</ele>
        <time>2011-09-08T20:00:12Z</time>
      </trkpt>
      <trkpt lat="43.62888" lon="7.03055">
        <ele>164</ele>
        <time>2011-09-08T20:00:18Z</time>
      </trkpt>
      <trkpt lat="43.62893" lon="7.03007">
        <ele>161</ele>
        <time>2011-09-08T20:00:28Z</time>
      </trkpt>
      <trkpt lat="43.62892" lon="7.02983">
        <ele>161</ele>
        <time>2011-09-08T20:00:33Z</time>
      </trkpt>
      <trkpt lat="43.62887" lon="7.02876">
        <ele>150</ele>
        <time>2011-09-08T20:00:51Z</time>
      </trkpt>
      <trkpt lat="43.62885" lon="7.02846">
        <ele>150</ele>
        <time>2011-09-08T20:00:55Z</time>
      </trkpt>
      <trkpt lat="43.62864" lon="7.02788">
        <ele>146</ele>
        <time>2011-09-08T20:01:04Z</time>
      </trkpt>
      <trkpt lat="43.62856" lon="7.02777">
        <ele>143</ele>
        <time>2011-09-08T20:01:09Z</time>
      </trkpt>
      <trkpt lat="43.62875" lon="7.02773">
        <ele>139</ele>
        <time>2011-09-08T20:01:26Z</time>
      </trkpt>
      <trkpt lat="43.62898" lon="7.02778">
        <ele>139</ele>
        <time>2011-09-08T20:01:35Z</time>
      </trkpt>
      <trkpt lat="43.62914" lon="7.02781">
        <ele>141</ele>
        <time>2011-09-08T20:01:45Z</time>
      </trkpt>
      <trkpt lat="43.62932" lon="7.02778">
        <ele>142</ele>
        <time>2011-09-08T20:01:52Z</time>
      </trkpt>
      <trkpt lat="43.62948" lon="7.02771">
        <ele>142</ele>
        <time>2011-09-08T20:01:58Z</time>
      </trkpt>
      <trkpt lat="43.62961" lon="7.02759">
        <ele>143</ele>
        <time>2011-09-08T20:02:04Z</time>
      </trkpt>
      <trkpt lat="43.62968" lon="7.02749">
        <ele>143</ele>
        <time>2011-09-08T20:02:08Z</time>
      </trkpt>
      <trkpt lat="43.62981" lon="7.02734">
        <ele>142</ele>
        <time>2011-09-08T20:02:15Z</time>
      </trkpt>
      <trkpt lat="43.63022" lon="7.02667">
        <ele>142</ele>
        <time>2011-09-08T20:02:39Z</time>
      </trkpt>
      <trkpt lat="43.63029" lon="7.02644">
        <ele>143</ele>
        <time>2011-09-08T20:02:45Z</time>
      </trkpt>
      <trkpt lat="43.63036" lon="7.02621">
        <ele>142</ele>
        <time>2011-09-08T20:02:51Z</time>
      </trkpt>
      <trkpt lat="43.63042" lon="7.02606">
        <ele>142</ele>
        <time>2011-09-08T20:02:55Z</time>
      </trkpt>
      <trkpt lat="43.63055" lon="7.02586">
        <ele>143</ele>
        <time>2011-09-08T20:03:01Z</time>
      </trkpt>
      <trkpt lat="43.63069" lon="7.02567">
        <ele>143</ele>
        <time>2011-09-08T20:03:06Z</time>
      </trkpt>
      <trkpt lat="43.63076" lon="7.02556">
        <ele>144</ele>
        <time>2011-09-08T20:03:08Z</time>
      </trkpt>
      <trkpt lat="43.6309" lon="7.02545">
        <ele>143</ele>
        <time>2011-09-08T20:03:11Z</time>
      </trkpt>
      <trkpt lat="43.63146" lon="7.02546">
        <ele>143</ele>
        <time>2011-09-08T20:03:26Z</time>
      </trkpt>
      <trkpt lat="43.63159" lon="7.02561">
        <ele>144</ele>
        <time>2011-09-08T20:03:31Z</time>
      </trkpt>
      <trkpt lat="43.63164" lon="7.02585">
        <ele>144</ele>
        <time>2011-09-08T20:03:36Z</time>
      </trkpt>
      <trkpt lat="43.63163" lon="7.02607">
        <ele>143</ele>
        <time>2011-09-08T20:03:41Z</time>
      </trkpt>
      <trkpt lat="43.63156" lon="7.0263">
        <ele>143</ele>
        <time>2011-09-08T20:03:48Z</time>
      </trkpt>
      <trkpt lat="43.63116" lon="7.02759">
        <ele>151</ele>
        <time>2011-09-08T20:04:29Z</time>
      </trkpt>
      <trkpt lat="43.63094" lon="7.02836">
        <ele>155</ele>
        <time>2011-09-08T20:04:51Z</time>
      </trkpt>
      <trkpt lat="43.63092" lon="7.02872">
        <ele>153</ele>
        <time>2011-09-08T20:04:59Z</time>
      </trkpt>
      <trkpt lat="43.63099" lon="7.0293">
        <ele>153</ele>
        <time>2011-09-08T20:05:11Z</time>
      </trkpt>
      <trkpt lat="43.6312" lon="7.0304">
        <ele>160</ele>
        <time>2011-09-08T20:05:38Z</time>
      </trkpt>
      <trkpt lat="43.63125" lon="7.03064">
        <ele>160</ele>
        <time>2011-09-08T20:05:44Z</time>
      </trkpt>
      <trkpt lat="43.63128" lon="7.03121">
        <ele>162</ele>
        <time>2011-09-08T20:05:56Z</time>
      </trkpt>
      <trkpt lat="43.63133" lon="7.03149">
        <ele>161</ele>
        <time>2011-09-08T20:06:00Z</time>
      </trkpt>
      <trkpt lat="43.63139" lon="7.03171">
        <ele>162</ele>
        <time>2011-09-08T20:06:03Z</time>
      </trkpt>
      <trkpt lat="43.63147" lon="7.03191">
        <ele>162</ele>
        <time>2011-09-08T20:06:06Z</time>
      </trkpt>
      <trkpt lat="43.63155" lon="7.03215">
        <ele>161</ele>
        <time>2011-09-08T20:06:10Z</time>
      </trkpt>
      <trkpt lat="43.63185" lon="7.03338">
        <ele>161</ele>
        <time>2011-09-08T20:06:31Z</time>
      </trkpt>
      <trkpt lat="43.63193" lon="7.03338">
        <ele>161</ele>
        <time>2011-09-08T20:06:36Z</time>
      </trkpt>
      <trkpt lat="43.63195" lon="7.03318">
        <ele>163</ele>
        <time>2011-09-08T20:06:42Z</time>
      </trkpt>
      <trkpt lat="43.63196" lon="7.0329">
        <ele>163</ele>
        <time>2011-09-08T20:06:52Z</time>
      </trkpt>
      <trkpt lat="43.63197" lon="7.03274">
        <ele>164</ele>
        <time>2011-09-08T20:06:58Z</time>
      </trkpt>
      <trkpt lat="43.63202" lon="7.03263">
        <ele>165</ele>
        <time>2011-09-08T20:07:03Z</time>
      </trkpt>
      <trkpt lat="43.63217" lon="7.03276">
        <ele>165</ele>
        <time>2011-09-08T20:07:11Z</time>
      </trkpt>
      <trkpt lat="43.63223" lon="7.03289">
        <ele>167</ele>
        <time>2011-09-08T20:07:16Z</time>
      </trkpt>
      <trkpt lat="43.63232" lon="7.03302">
        <ele>167</ele>
        <time>2011-09-08T20:07:23Z</time>
      </trkpt>
      <trkpt lat="43.6324" lon="7.03304">
        <ele>169</ele>
        <time>2011-09-08T20:07:28Z</time>
      </trkpt>
      <trkpt lat="43.63255" lon="7.03298">
        <ele>170</ele>
        <time>2011-09-08T20:07:38Z</time>
      </trkpt>
      <trkpt lat="43.63312" lon="7.03242">
        <ele>177</ele>
        <time>2011-09-08T20:08:15Z</time>
      </trkpt>
      <trkpt lat="43.63391" lon="7.03156">
        <ele>181</ele>
        <time>2011-09-08T20:08:46Z</time>
      </trkpt>
      <trkpt lat="43.63409" lon="7.03113">
        <ele>183</ele>
        <time>2011-09-08T20:08:57Z</time>
      </trkpt>
      <trkpt lat="43.63419" lon="7.03074">
        <ele>183</ele>
        <time>2011-09-08T20:09:07Z</time>
      </trkpt>
      <trkpt lat="43.6342" lon="7.03055">
        <ele>184</ele>
        <time>2011-09-08T20:09:12Z</time>
      </trkpt>
      <trkpt lat="43.63421" lon="7.0304">
        <ele>183</ele>
        <time>2011-09-08T20:09:16Z</time>
      </trkpt>
      <trkpt lat="43.6342" lon="7.03022">
        <ele>184</ele>
        <time>2011-09-08T20:09:21Z</time>
      </trkpt>
      <trkpt lat="43.63419" lon="7.03007">
        <ele>184</ele>
        <time>2011-09-08T20:09:25Z</time>
      </trkpt>
      <trkpt lat="43.63419" lon="7.02966">
        <ele>189</ele>
        <time>2011-09-08T20:09:39Z</time>
      </trkpt>
      <trkpt lat="43.63427" lon="7.02971">
        <ele>190</ele>
        <time>2011-09-08T20:10:05Z</time>
      </trkpt>
      <trkpt lat="43.63441" lon="7.02948">
        <ele>191</ele>
        <time>2011-09-08T20:11:01Z</time>
      </trkpt>
      <trkpt lat="43.63451" lon="7.0288">
        <ele>184</ele>
        <time>2011-09-08T20:11:17Z</time>
      </trkpt>
      <trkpt lat="43.63453" lon="7.02854">
        <ele>180</ele>
        <time>2011-09-08T20:11:23Z</time>
      </trkpt>
      <trkpt lat="43.63447" lon="7.02832">
        <ele>177</ele>
        <time>2011-09-08T20:11:42Z</time>
      </trkpt>
      <trkpt lat="43.6344" lon="7.02799">
        <ele>176</ele>
        <time>2011-09-08T20:11:51Z</time>
      </trkpt>
      <trkpt lat="43.63442" lon="7.02776">
        <ele>174</ele>
        <time>2011-09-08T20:11:57Z</time>
      </trkpt>
      <trkpt lat="43.63465" lon="7.02752">
        <ele>173</ele>
        <time>2011-09-08T20:12:16Z</time>
      </trkpt>
      <trkpt lat="43.63515" lon="7.02736">
        <ele>173</ele>
        <time>2011-09-08T20:12:27Z</time>
      </trkpt>
      <trkpt lat="43.63583" lon="7.02657">
        <ele>169</ele>
        <time>2011-09-08T20:12:43Z</time>
      </trkpt>
      <trkpt lat="43.6359" lon="7.02631">
        <ele>168</ele>
        <time>2011-09-08T20:12:48Z</time>
      </trkpt>
      <trkpt lat="43.63598" lon="7.02613">
        <ele>169</ele>
        <time>2011-09-08T20:12:52Z</time>
      </trkpt>
      <trkpt lat="43.63617" lon="7.02607">
        <ele>168</ele>
        <time>2011-09-08T20:12:56Z</time>
      </trkpt>
      <trkpt lat="43.63661" lon="7.02627">
        <ele>165</ele>
        <time>2011-09-08T20:13:06Z</time>
      </trkpt>
      <trkpt lat="43.63683" lon="7.02639">
        <ele>164</ele>
        <time>2011-09-08T20:13:11Z</time>
      </trkpt>
      <trkpt lat="43.6372" lon="7.02634">
        <ele>160</ele>
        <time>2011-09-08T20:13:20Z</time>
      </trkpt>
      <trkpt lat="43.63739" lon="7.02629">
        <ele>160</ele>
        <time>2011-09-08T20:13:24Z</time>
      </trkpt>
      <trkpt lat="43.63804" lon="7.02598">
        <ele>155</ele>
        <time>2011-09-08T20:13:40Z</time>
      </trkpt>
      <trkpt lat="43.63833" lon="7.02614">
        <ele>150</ele>
        <time>2011-09-08T20:13:47Z</time>
      </trkpt>
      <trkpt lat="43.6381" lon="7.02641">
        <ele>140</ele>
        <time>2011-09-08T20:14:14Z</time>
      </trkpt>
      <trkpt lat="43.63792" lon="7.02652">
        <ele>140</ele>
        <time>2011-09-08T20:14:24Z</time>
      </trkpt>
      <trkpt lat="43.63773" lon="7.02661">
        <ele>139</ele>
        <time>2011-09-08T20:14:33Z</time>
      </trkpt>
      <trkpt lat="43.63753" lon="7.02666">
        <ele>140</ele>
        <time>2011-09-08T20:14:44Z</time>
      </trkpt>
      <trkpt lat="43.63728" lon="7.02674">
        <ele>140</ele>
        <time>2011-09-08T20:14:55Z</time>
      </trkpt>
      <trkpt lat="43.63709" lon="7.02683">
        <ele>142</ele>
        <time>2011-09-08T20:15:04Z</time>
      </trkpt>
      <trkpt lat="43.63689" lon="7.02693">
        <ele>141</ele>
        <time>2011-09-08T20:15:13Z</time>
      </trkpt>
      <trkpt lat="43.63653" lon="7.02698">
        <ele>143</ele>
        <time>2011-09-08T20:15:24Z</time>
      </trkpt>
      <trkpt lat="43.63641" lon="7.02683">
        <ele>142</ele>
        <time>2011-09-08T20:15:32Z</time>
      </trkpt>
      <trkpt lat="43.6363" lon="7.0266">
        <ele>141</ele>
        <time>2011-09-08T20:15:37Z</time>
      </trkpt>
      <trkpt lat="43.6362" lon="7.0263">
        <ele>140</ele>
        <time>2011-09-08T20:15:47Z</time>
      </trkpt>
      <trkpt lat="43.63611" lon="7.0266">
        <ele>139</ele>
        <time>2011-09-08T20:16:05Z</time>
      </trkpt>
      <trkpt lat="43.636" lon="7.02684">
        <ele>143</ele>
        <time>2011-09-08T20:16:15Z</time>
      </trkpt>
      <trkpt lat="43.63578" lon="7.02723">
        <ele>146</ele>
        <time>2011-09-08T20:16:30Z</time>
      </trkpt>
      <trkpt lat="43.63541" lon="7.02758">
        <ele>147</ele>
        <time>2011-09-08T20:16:42Z</time>
      </trkpt>
      <trkpt lat="43.63507" lon="7.02791">
        <ele>145</ele>
        <time>2011-09-08T20:16:52Z</time>
      </trkpt>
      <trkpt lat="43.63495" lon="7.02811">
        <ele>145</ele>
        <time>2011-09-08T20:16:56Z</time>
      </trkpt>
      <trkpt lat="43.63488" lon="7.02836">
        <ele>146</ele>
        <time>2011-09-08T20:17:00Z</time>
      </trkpt>
      <trkpt lat="43.63488" lon="7.0287">
        <ele>147</ele>
        <time>2011-09-08T20:17:06Z</time>
      </trkpt>
      <trkpt lat="43.63495" lon="7.02895">
        <ele>147</ele>
        <time>2011-09-08T20:17:11Z</time>
      </trkpt>
      <trkpt lat="43.63505" lon="7.02923">
        <ele>145</ele>
        <time>2011-09-08T20:17:17Z</time>
      </trkpt>
      <trkpt lat="43.63512" lon="7.02967">
        <ele>147</ele>
        <time>2011-09-08T20:17:27Z</time>
      </trkpt>
      <trkpt lat="43.63515" lon="7.03107">
        <ele>150</ele>
        <time>2011-09-08T20:17:59Z</time>
      </trkpt>
      <trkpt lat="43.63511" lon="7.03157">
        <ele>152</ele>
        <time>2011-09-08T20:18:09Z</time>
      </trkpt>
      <trkpt lat="43.63508" lon="7.03182">
        <ele>152</ele>
        <time>2011-09-08T20:18:14Z</time>
      </trkpt>
      <trkpt lat="43.63498" lon="7.03231">
        <ele>154</ele>
        <time>2011-09-08T20:18:24Z</time>
      </trkpt>
      <trkpt lat="43.6349" lon="7.03254">
        <ele>154</ele>
        <time>2011-09-08T20:18:29Z</time>
      </trkpt>
      <trkpt lat="43.63451" lon="7.03305">
        <ele>157</ele>
        <time>2011-09-08T20:18:44Z</time>
      </trkpt>
      <trkpt lat="43.63434" lon="7.03319">
        <ele>158</ele>
        <time>2011-09-08T20:18:49Z</time>
      </trkpt>
      <trkpt lat="43.63353" lon="7.03372">
        <ele>158</ele>
        <time>2011-09-08T20:19:09Z</time>
      </trkpt>
      <trkpt lat="43.63337" lon="7.03377">
        <ele>157</ele>
        <time>2011-09-08T20:19:12Z</time>
      </trkpt>
      <trkpt lat="43.63304" lon="7.03387">
        <ele>158</ele>
        <time>2011-09-08T20:19:19Z</time>
      </trkpt>
      <trkpt lat="43.63285" lon="7.03394">
        <ele>157</ele>
        <time>2011-09-08T20:19:23Z</time>
      </trkpt>
      <trkpt lat="43.63267" lon="7.034">
        <ele>158</ele>
        <time>2011-09-08T20:19:27Z</time>
      </trkpt>
      <trkpt lat="43.63213" lon="7.03403">
        <ele>158</ele>
        <time>2011-09-08T20:19:39Z</time>
      </trkpt>
      <trkpt lat="43.63198" lon="7.03388">
        <ele>158</ele>
        <time>2011-09-08T20:19:44Z</time>
      </trkpt>
      <trkpt lat="43.63194" lon="7.03359">
        <ele>162</ele>
        <time>2011-09-08T20:20:34Z</time>
      </trkpt>
      <trkpt lat="43.63198" lon="7.03289">
        <ele>162</ele>
        <time>2011-09-08T20:20:54Z</time>
      </trkpt>
      <trkpt lat="43.63206" lon="7.03257">
        <ele>164</ele>
        <time>2011-09-08T20:21:07Z</time>
      </trkpt>
      <trkpt lat="43.63222" lon="7.03274">
        <ele>161</ele>
        <time>2011-09-08T20:21:16Z</time>
      </trkpt>
      <trkpt lat="43.63236" lon="7.03299">
        <ele>162</ele>
        <time>2011-09-08T20:21:25Z</time>
      </trkpt>
      <trkpt lat="43.63255" lon="7.03306">
        <ele>165</ele>
        <time>2011-09-08T20:21:35Z</time>
      </trkpt>
      <trkpt lat="43.63272" lon="7.03295">
        <ele>167</ele>
        <time>2011-09-08T20:21:44Z</time>
      </trkpt>
      <trkpt lat="43.63342" lon="7.03218">
        <ele>173</ele>
        <time>2011-09-08T20:22:19Z</time>
      </trkpt>
      <trkpt lat="43.63385" lon="7.03168">
        <ele>177</ele>
        <time>2011-09-08T20:22:37Z</time>
      </trkpt>
      <trkpt lat="43.63396" lon="7.0315">
        <ele>176</ele>
        <time>2011-09-08T20:22:42Z</time>
      </trkpt>
      <trkpt lat="43.63413" lon="7.03084">
        <ele>180</ele>
        <time>2011-09-08T20:22:57Z</time>
      </trkpt>
      <trkpt lat="43.63417" lon="7.03059">
        <ele>182</ele>
        <time>2011-09-08T20:23:03Z</time>
      </trkpt>
      <trkpt lat="43.634" lon="7.03063">
        <ele>182</ele>
        <time>2011-09-08T20:23:21Z</time>
      </trkpt>
      <trkpt lat="43.63352" lon="7.03072">
        <ele>185</ele>
        <time>2011-09-08T20:23:51Z</time>
      </trkpt>
      <trkpt lat="43.63337" lon="7.03065">
        <ele>186</ele>
        <time>2011-09-08T20:23:59Z</time>
      </trkpt>
      <trkpt lat="43.63324" lon="7.03053">
        <ele>189</ele>
        <time>2011-09-08T20:24:07Z</time>
      </trkpt>
      <trkpt lat="43.63319" lon="7.03032">
        <ele>190</ele>
        <time>2011-09-08T20:24:17Z</time>
      </trkpt>
      <trkpt lat="43.6332" lon="7.03002">
        <ele>189</ele>
        <time>2011-09-08T20:24:28Z</time>
      </trkpt>
      <trkpt lat="43.63333" lon="7.029">
        <ele>194</ele>
        <time>2011-09-08T20:25:04Z</time>
      </trkpt>
      <trkpt lat="43.63341" lon="7.02839">
        <ele>198</ele>
        <time>2011-09-08T20:25:20Z</time>
      </trkpt>
      <trkpt lat="43.63346" lon="7.02814">
        <ele>198</ele>
        <time>2011-09-08T20:25:24Z</time>
      </trkpt>
      <trkpt lat="43.6337" lon="7.02749">
        <ele>195</ele>
        <time>2011-09-08T20:25:36Z</time>
      </trkpt>
      <trkpt lat="43.63419" lon="7.02669">
        <ele>193</ele>
        <time>2011-09-08T20:26:06Z</time>
      </trkpt>
      <trkpt lat="43.63404" lon="7.02679">
        <ele>185</ele>
        <time>2011-09-08T20:26:21Z</time>
      </trkpt>
      <trkpt lat="43.6335" lon="7.02697">
        <ele>180</ele>
        <time>2011-09-08T20:26:34Z</time>
      </trkpt>
      <trkpt lat="43.63305" lon="7.0271">
        <ele>179</ele>
        <time>2011-09-08T20:26:43Z</time>
      </trkpt>
      <trkpt lat="43.63263" lon="7.02691">
        <ele>178</ele>
        <time>2011-09-08T20:26:48Z</time>
      </trkpt>
      <trkpt lat="43.63184" lon="7.02665">
        <ele>174</ele>
        <time>2011-09-08T20:27:00Z</time>
      </trkpt>
      <trkpt lat="43.63152" lon="7.02673">
        <ele>170</ele>
        <time>2011-09-08T20:27:07Z</time>
      </trkpt>
      <trkpt lat="43.63118" lon="7.02664">
        <ele>165</ele>
        <time>2011-09-08T20:27:39Z</time>
      </trkpt>
      <trkpt lat="43.63133" lon="7.02611">
        <ele>164</ele>
        <time>2011-09-08T20:27:52Z</time>
      </trkpt>
      <trkpt lat="43.6313" lon="7.02579">
        <ele>163</ele>
        <time>2011-09-08T20:27:58Z</time>
      </trkpt>
      <trkpt lat="43.63124" lon="7.02554">
        <ele>162</ele>
        <time>2011-09-08T20:28:04Z</time>
      </trkpt>
      <trkpt lat="43.63101" lon="7.02537">
        <ele>157</ele>
        <time>2011-09-08T20:28:13Z</time>
      </trkpt>
      <trkpt lat="43.63082" lon="7.02541">
        <ele>154</ele>
        <time>2011-09-08T20:28:16Z</time>
      </trkpt>
      <trkpt lat="43.63066" lon="7.02556">
        <ele>151</ele>
        <time>2011-09-08T20:28:19Z</time>
      </trkpt>
      <trkpt lat="43.63033" lon="7.02614">
        <ele>142</ele>
        <time>2011-09-08T20:28:32Z</time>
      </trkpt>
      <trkpt lat="43.63017" lon="7.02657">
        <ele>138</ele>
        <time>2011-09-08T20:28:40Z</time>
      </trkpt>
      <trkpt lat="43.62931" lon="7.02797">
        <ele>130</ele>
        <time>2011-09-08T20:29:07Z</time>
      </trkpt>
      <trkpt lat="43.62915" lon="7.02804">
        <ele>128</ele>
        <time>2011-09-08T20:29:15Z</time>
      </trkpt>
      <trkpt lat="43.62899" lon="7.02802">
        <ele>126</ele>
        <time>2011-09-08T20:29:20Z</time>
      </trkpt>
      <trkpt lat="43.62857" lon="7.02782">
        <ele>124</ele>
        <time>2011-09-08T20:29:38Z</time>
      </trkpt>
      <trkpt lat="43.62841" lon="7.02766">
        <ele>125</ele>
        <time>2011-09-08T20:29:47Z</time>
      </trkpt>
      <trkpt lat="43.62829" lon="7.02748">
        <ele>125</ele>
        <time>2011-09-08T20:29:55Z</time>
      </trkpt>
      <trkpt lat="43.62775" lon="7.02686">
        <ele>128</ele>
        <time>2011-09-08T20:30:39Z</time>
      </trkpt>
      <trkpt lat="43.62762" lon="7.02661">
        <ele>129</ele>
        <time>2011-09-08T20:30:48Z</time>
      </trkpt>
      <trkpt lat="43.6273" lon="7.0262">
        <ele>129</ele>
        <time>2011-09-08T20:31:06Z</time>
      </trkpt>
      <trkpt lat="43.6271" lon="7.02609">
        <ele>130</ele>
        <time>2011-09-08T20:31:16Z</time>
      </trkpt>
      <trkpt lat="43.62675" lon="7.02611">
        <ele>134</ele>
        <time>2011-09-08T20:31:31Z</time>
      </trkpt>
      <trkpt lat="43.62655" lon="7.02614">
        <ele>134</ele>
        <time>2011-09-08T20:31:40Z</time>
      </trkpt>
      <trkpt lat="43.62609" lon="7.02641">
        <ele>137</ele>
        <time>2011-09-08T20:32:00Z</time>
      </trkpt>
      <trkpt lat="43.62591" lon="7.02651">
        <ele>137</ele>
        <time>2011-09-08T20:32:09Z</time>
      </trkpt>
      <trkpt lat="43.62571" lon="7.02657">
        <ele>139</ele>
        <time>2011-09-08T20:32:19Z</time>
      </trkpt>
      <trkpt lat="43.62554" lon="7.02654">
        <ele>139</ele>
        <time>2011-09-08T20:32:27Z</time>
      </trkpt>
      <trkpt lat="43.625" lon="7.02652">
        <ele>152</ele>
        <time>2011-09-08T20:32:57Z</time>
      </trkpt>
      <trkpt lat="43.62447" lon="7.02644">
        <ele>155</ele>
        <time>2011-09-08T20:33:20Z</time>
      </trkpt>
      <trkpt lat="43.62433" lon="7.02632">
        <ele>156</ele>
        <time>2011-09-08T20:33:25Z</time>
      </trkpt>
      <trkpt lat="43.62413" lon="7.02599">
        <ele>160</ele>
        <time>2011-09-08T20:33:33Z</time>
      </trkpt>
      <trkpt lat="43.62382" lon="7.02549">
        <ele>163</ele>
        <time>2011-09-08T20:33:44Z</time>
      </trkpt>
      <trkpt lat="43.6237" lon="7.02527">
        <ele>163</ele>
        <time>2011-09-08T20:33:50Z</time>
      </trkpt>
      <trkpt lat="43.62349" lon="7.02486">
        <ele>165</ele>
        <time>2011-09-08T20:33:59Z</time>
      </trkpt>
      <trkpt lat="43.62357" lon="7.02455">
        <ele>168</ele>
        <time>2011-09-08T20:34:48Z</time>
      </trkpt>
      <trkpt lat="43.62374" lon="7.02432">
        <ele>169</ele>
        <time>2011-09-08T20:34:57Z</time>
      </trkpt>
      <trkpt lat="43.6239" lon="7.02416">
        <ele>168</ele>
        <time>2011-09-08T20:35:06Z</time>
      </trkpt>
      <trkpt lat="43.62447" lon="7.02361">
        <ele>172</ele>
        <time>2011-09-08T20:35:49Z</time>
      </trkpt>
      <trkpt lat="43.62478" lon="7.02315">
        <ele>176</ele>
        <time>2011-09-08T20:36:08Z</time>
      </trkpt>
      <trkpt lat="43.62488" lon="7.0228">
        <ele>178</ele>
        <time>2011-09-08T20:36:13Z</time>
      </trkpt>
      <trkpt lat="43.62495" lon="7.02218">
        <ele>184</ele>
        <time>2011-09-08T20:36:29Z</time>
      </trkpt>
      <trkpt lat="43.62476" lon="7.02155">
        <ele>183</ele>
        <time>2011-09-08T20:36:39Z</time>
      </trkpt>
      <trkpt lat="43.62463" lon="7.02093">
        <ele>183</ele>
        <time>2011-09-08T20:36:47Z</time>
      </trkpt>
      <trkpt lat="43.62464" lon="7.02071">
        <ele>184</ele>
        <time>2011-09-08T20:36:50Z</time>
      </trkpt>
      <trkpt lat="43.62466" lon="7.02042">
        <ele>184</ele>
        <time>2011-09-08T20:36:54Z</time>
      </trkpt>
      <trkpt lat="43.62484" lon="7.01938">
        <ele>186</ele>
        <time>2011-09-08T20:37:11Z</time>
      </trkpt>
      <trkpt lat="43.62478" lon="7.01913">
        <ele>188</ele>
        <time>2011-09-08T20:37:17Z</time>
      </trkpt>
      <trkpt lat="43.62453" lon="7.01875">
        <ele>188</ele>
        <time>2011-09-08T20:37:27Z</time>
      </trkpt>
      <trkpt lat="43.6243" lon="7.01857">
        <ele>187</ele>
        <time>2011-09-08T20:37:34Z</time>
      </trkpt>
      <trkpt lat="43.62413" lon="7.0185">
        <ele>187</ele>
        <time>2011-09-08T20:37:38Z</time>
      </trkpt>
      <trkpt lat="43.62396" lon="7.01852">
        <ele>186</ele>
        <time>2011-09-08T20:37:42Z</time>
      </trkpt>
      <trkpt lat="43.62298" lon="7.01868">
        <ele>184</ele>
        <time>2011-09-08T20:38:04Z</time>
      </trkpt>
      <trkpt lat="43.62257" lon="7.01848">
        <ele>181</ele>
        <time>2011-09-08T20:38:13Z</time>
      </trkpt>
      <trkpt lat="43.62251" lon="7.01827">
        <ele>181</ele>
        <time>2011-09-08T20:38:19Z</time>
      </trkpt>
      <trkpt lat="43.62252" lon="7.018">
        <ele>181</ele>
        <time>2011-09-08T20:38:25Z</time>
      </trkpt>
      <trkpt lat="43.62265" lon="7.01732">
        <ele>178</ele>
        <time>2011-09-08T20:38:49Z</time>
      </trkpt>
      <trkpt lat="43.62251" lon="7.01702">
        <ele>176</ele>
        <time>2011-09-08T20:39:05Z</time>
      </trkpt>
      <trkpt lat="43.62236" lon="7.01685">
        <ele>174</ele>
        <time>2011-09-08T20:39:21Z</time>
      </trkpt>
      <trkpt lat="43.62218" lon="7.01677">
        <ele>177</ele>
        <time>2011-09-08T20:39:41Z</time>
      </trkpt>
      <trkpt lat="43.62198" lon="7.01683">
        <ele>179</ele>
        <time>2011-09-08T20:39:53Z</time>
      </trkpt>
      <trkpt lat="43.62162" lon="7.01695">
        <ele>180</ele>
        <time>2011-09-08T20:40:03Z</time>
      </trkpt>
      <trkpt lat="43.62125" lon="7.01661">
        <ele>177</ele>
        <time>2011-09-08T20:40:12Z</time>
      </trkpt>
      <trkpt lat="43.62114" lon="7.0164">
        <ele>175</ele>
        <time>2011-09-08T20:40:16Z</time>
      </trkpt>
      <trkpt lat="43.62083" lon="7.01626">
        <ele>173</ele>
        <time>2011-09-08T20:40:21Z</time>
      </trkpt>
      <trkpt lat="43.62051" lon="7.0162">
        <ele>168</ele>
        <time>2011-09-08T20:40:29Z</time>
      </trkpt>
      <trkpt lat="43.62038" lon="7.01636">
        <ele>167</ele>
        <time>2011-09-08T20:40:34Z</time>
      </trkpt>
      <trkpt lat="43.62023" lon="7.01651">
        <ele>166</ele>
        <time>2011-09-08T20:40:37Z</time>
      </trkpt>
      <trkpt lat="43.62008" lon="7.01658">
        <ele>166</ele>
        <time>2011-09-08T20:40:39Z</time>
      </trkpt>
      <trkpt lat="43.61962" lon="7.01665">
        <ele>164</ele>
        <time>2011-09-08T20:40:45Z</time>
      </trkpt>
      <trkpt lat="43.6195" lon="7.01651">
        <ele>162</ele>
        <time>2011-09-08T20:40:51Z</time>
      </trkpt>
      <trkpt lat="43.61953" lon="7.01625">
        <ele>161</ele>
        <time>2011-09-08T20:40:55Z</time>
      </trkpt>
      <trkpt lat="43.61958" lon="7.01599">
        <ele>160</ele>
        <time>2011-09-08T20:40:59Z</time>
      </trkpt>
      <trkpt lat="43.61963" lon="7.01576">
        <ele>161</ele>
        <time>2011-09-08T20:41:03Z</time>
      </trkpt>
      <trkpt lat="43.61965" lon="7.01552">
        <ele>161</ele>
        <time>2011-09-08T20:41:07Z</time>
      </trkpt>
      <trkpt lat="43.61965" lon="7.01528">
        <ele>160</ele>
        <time>2011-09-08T20:41:11Z</time>
      </trkpt>
      <trkpt lat="43.61949" lon="7.01417">
        <ele>159</ele>
        <time>2011-09-08T20:41:34Z</time>
      </trkpt>
      <trkpt lat="43.61948" lon="7.01391">
        <ele>161</ele>
        <time>2011-09-08T20:41:43Z</time>
      </trkpt>
      <trkpt lat="43.61954" lon="7.0137">
        <ele>161</ele>
        <time>2011-09-08T20:41:48Z</time>
      </trkpt>
      <trkpt lat="43.6198" lon="7.01309">
        <ele>161</ele>
        <time>2011-09-08T20:42:03Z</time>
      </trkpt>
      <trkpt lat="43.61986" lon="7.01283">
        <ele>162</ele>
        <time>2011-09-08T20:42:09Z</time>
      </trkpt>
      <trkpt lat="43.61992" lon="7.01257">
        <ele>162</ele>
        <time>2011-09-08T20:42:14Z</time>
      </trkpt>
      <trkpt lat="43.61996" lon="7.01232">
        <ele>163</ele>
        <time>2011-09-08T20:42:19Z</time>
      </trkpt>
      <trkpt lat="43.62" lon="7.01184">
        <ele>163</ele>
        <time>2011-09-08T20:42:29Z</time>
      </trkpt>
      <trkpt lat="43.62" lon="7.01161">
        <ele>164</ele>
        <time>2011-09-08T20:42:34Z</time>
      </trkpt>
      <trkpt lat="43.61999" lon="7.01137">
        <ele>164</ele>
        <time>2011-09-08T20:42:39Z</time>
      </trkpt>
      <trkpt lat="43.62" lon="7.01113">
        <ele>163</ele>
        <time>2011-09-08T20:42:44Z</time>
      </trkpt>
      <trkpt lat="43.61996" lon="7.01083">
        <ele>163</ele>
        <time>2011-09-08T20:42:54Z</time>
      </trkpt>
      <trkpt lat="43.61961" lon="7.01147">
        <ele>163</ele>
        <time>2011-09-08T20:43:17Z</time>
      </trkpt>
      <trkpt lat="43.6188" lon="7.01276">
        <ele>158</ele>
        <time>2011-09-08T20:43:50Z</time>
      </trkpt>
      <trkpt lat="43.61856" lon="7.01305">
        <ele>156</ele>
        <time>2011-09-08T20:44:08Z</time>
      </trkpt>
      <trkpt lat="43.61855" lon="7.01332">
        <ele>156</ele>
        <time>2011-09-08T20:44:15Z</time>
      </trkpt>
      <trkpt lat="43.61847" lon="7.01352">
        <ele>157</ele>
        <time>2011-09-08T20:44:19Z</time>
      </trkpt>
      <trkpt lat="43.6183" lon="7.01361">
        <ele>156</ele>
        <time>2011-09-08T20:44:24Z</time>
      </trkpt>
      <trkpt lat="43.61812" lon="7.01356">
        <ele>154</ele>
        <time>2011-09-08T20:44:30Z</time>
      </trkpt>
      <trkpt lat="43.61791" lon="7.01357">
        <ele>156</ele>
        <time>2011-09-08T20:44:37Z</time>
      </trkpt>
      <trkpt lat="43.61721" lon="7.01401">
        <ele>158</ele>
        <time>2011-09-08T20:45:02Z</time>
      </trkpt>
      <trkpt lat="43.6168" lon="7.01458">
        <ele>164</ele>
        <time>2011-09-08T20:45:21Z</time>
      </trkpt>
      <trkpt lat="43.61656" lon="7.01507">
        <ele>165</ele>
        <time>2011-09-08T20:45:36Z</time>
      </trkpt>
      <trkpt lat="43.61632" lon="7.01538">
        <ele>163</ele>
        <time>2011-09-08T20:45:46Z</time>
      </trkpt>
      <trkpt lat="43.6162" lon="7.016">
        <ele>163</ele>
        <time>2011-09-08T20:45:58Z</time>
      </trkpt>
      <trkpt lat="43.61632" lon="7.01663">
        <ele>165</ele>
        <time>2011-09-08T20:46:06Z</time>
      </trkpt>
      <trkpt lat="43.6167" lon="7.01816">
        <ele>168</ele>
        <time>2011-09-08T20:46:28Z</time>
      </trkpt>
      <trkpt lat="43.61667" lon="7.01816">
        <ele>167</ele>
        <time>2011-09-08T20:47:06Z</time>
      </trkpt>
      <trkpt lat="43.61654" lon="7.01803">
        <ele>167</ele>
        <time>2011-09-08T20:47:12Z</time>
      </trkpt>
      <trkpt lat="43.61612" lon="7.01787">
        <ele>167</ele>
        <time>2011-09-08T20:47:25Z</time>
      </trkpt>
      <trkpt lat="43.61563" lon="7.01763">
        <ele>166</ele>
        <time>2011-09-08T20:47:38Z</time>
      </trkpt>
      <trkpt lat="43.61515" lon="7.01759">
        <ele>169</ele>
        <time>2011-09-08T20:47:48Z</time>
      </trkpt>
      <trkpt lat="43.6147" lon="7.01756">
        <ele>168</ele>
        <time>2011-09-08T20:47:55Z</time>
      </trkpt>
      <trkpt lat="43.61424" lon="7.0177">
        <ele>169</ele>
        <time>2011-09-08T20:48:04Z</time>
      </trkpt>
      <trkpt lat="43.61382" lon="7.01796">
        <ele>169</ele>
        <time>2011-09-08T20:48:12Z</time>
      </trkpt>
      <trkpt lat="43.61271" lon="7.01877">
        <ele>171</ele>
        <time>2011-09-08T20:48:48Z</time>
      </trkpt>
      <trkpt lat="43.61258" lon="7.01897">
        <ele>170</ele>
        <time>2011-09-08T20:48:59Z</time>
      </trkpt>
      <trkpt lat="43.61237" lon="7.01926">
        <ele>176</ele>
        <time>2011-09-08T20:49:39Z</time>
      </trkpt>
      <trkpt lat="43.61252" lon="7.02012">
        <ele>179</ele>
        <time>2011-09-08T20:50:05Z</time>
      </trkpt>
      <trkpt lat="43.61318" lon="7.02278">
        <ele>175</ele>
        <time>2011-09-08T20:50:40Z</time>
      </trkpt>
      <trkpt lat="43.61292" lon="7.02338">
        <ele>177</ele>
        <time>2011-09-08T20:50:47Z</time>
      </trkpt>
      <trkpt lat="43.61255" lon="7.02377">
        <ele>178</ele>
        <time>2011-09-08T20:50:53Z</time>
      </trkpt>
      <trkpt lat="43.61206" lon="7.02439">
        <ele>178</ele>
        <time>2011-09-08T20:51:08Z</time>
      </trkpt>
      <trkpt lat="43.61188" lon="7.02445">
        <ele>176</ele>
        <time>2011-09-08T20:51:12Z</time>
      </trkpt>
      <trkpt lat="43.6117" lon="7.02457">
        <ele>175</ele>
        <time>2011-09-08T20:51:19Z</time>
      </trkpt>
      <trkpt lat="43.61131" lon="7.02458">
        <ele>174</ele>
        <time>2011-09-08T20:53:06Z</time>
      </trkpt>
      <trkpt lat="43.61138" lon="7.02476">
        <ele>171</ele>
        <time>2011-09-08T20:54:20Z</time>
      </trkpt>
      <trkpt lat="43.61152" lon="7.0246">
        <ele>178</ele>
        <time>2011-09-08T20:54:49Z</time>
      </trkpt>
      <trkpt lat="43.61164" lon="7.02476">
        <ele>181</ele>
        <time>2011-09-08T20:55:05Z</time>
      </trkpt>
      <trkpt lat="43.61165" lon="7.02499">
        <ele>183</ele>
        <time>2011-09-08T20:55:14Z</time>
      </trkpt>
      <trkpt lat="43.61162" lon="7.02528">
        <ele>183</ele>
        <time>2011-09-08T20:55:25Z</time>
      </trkpt>
      <trkpt lat="43.61151" lon="7.02563">
        <ele>186</ele>
        <time>2011-09-08T20:55:44Z</time>
      </trkpt>
      <trkpt lat="43.61122" lon="7.02617">
        <ele>190</ele>
        <time>2011-09-08T20:56:17Z</time>
      </trkpt>
      <trkpt lat="43.611" lon="7.02662">
        <ele>191</ele>
        <time>2011-09-08T20:56:36Z</time>
      </trkpt>
      <trkpt lat="43.61042" lon="7.02706">
        <ele>190</ele>
        <time>2011-09-08T20:56:55Z</time>
      </trkpt>
      <trkpt lat="43.61027" lon="7.0272">
        <ele>191</ele>
        <time>2011-09-08T20:56:58Z</time>
      </trkpt>
      <trkpt lat="43.60984" lon="7.02751">
        <ele>189</ele>
        <time>2011-09-08T20:57:05Z</time>
      </trkpt>
      <trkpt lat="43.60936" lon="7.02767">
        <ele>180</ele>
        <time>2011-09-08T20:57:19Z</time>
      </trkpt>
      <trkpt lat="43.60931" lon="7.02792">
        <ele>177</ele>
        <time>2011-09-08T20:57:28Z</time>
      </trkpt>
      <trkpt lat="43.60938" lon="7.02828">
        <ele>177</ele>
        <time>2011-09-08T20:57:37Z</time>
      </trkpt>
      <trkpt lat="43.60947" lon="7.02849">
        <ele>178</ele>
        <time>2011-09-08T20:57:46Z</time>
      </trkpt>
      <trkpt lat="43.60952" lon="7.02877">
        <ele>178</ele>
        <time>2011-09-08T20:57:51Z</time>
      </trkpt>
      <trkpt lat="43.60958" lon="7.02901">
        <ele>179</ele>
        <time>2011-09-08T20:57:54Z</time>
      </trkpt>
      <trkpt lat="43.60967" lon="7.02925">
        <ele>178</ele>
        <time>2011-09-08T20:57:57Z</time>
      </trkpt>
      <trkpt lat="43.61001" lon="7.02977">
        <ele>175</ele>
        <time>2011-09-08T20:58:05Z</time>
      </trkpt>
      <trkpt lat="43.61036" lon="7.03028">
        <ele>173</ele>
        <time>2011-09-08T20:58:11Z</time>
      </trkpt>
      <trkpt lat="43.61049" lon="7.03087">
        <ele>172</ele>
        <time>2011-09-08T20:58:20Z</time>
      </trkpt>
      <trkpt lat="43.61066" lon="7.03109">
        <ele>160</ele>
        <time>2011-09-08T20:58:45Z</time>
      </trkpt>
      <trkpt lat="43.61083" lon="7.03148">
        <ele>158</ele>
        <time>2011-09-08T20:58:53Z</time>
      </trkpt>
      <trkpt lat="43.61095" lon="7.03164">
        <ele>158</ele>
        <time>2011-09-08T20:58:57Z</time>
      </trkpt>
      <trkpt lat="43.61106" lon="7.03179">
        <ele>159</ele>
        <time>2011-09-08T20:59:01Z</time>
      </trkpt>
      <trkpt lat="43.61143" lon="7.03205">
        <ele>159</ele>
        <time>2011-09-08T20:59:10Z</time>
      </trkpt>
      <trkpt lat="43.61277" lon="7.03265">
        <ele>157</ele>
        <time>2011-09-08T20:59:33Z</time>
      </trkpt>
      <trkpt lat="43.61285" lon="7.03289">
        <ele>158</ele>
        <time>2011-09-08T20:59:38Z</time>
      </trkpt>
      <trkpt lat="43.61287" lon="7.03315">
        <ele>159</ele>
        <time>2011-09-08T20:59:43Z</time>
      </trkpt>
      <trkpt lat="43.61296" lon="7.03366">
        <ele>159</ele>
        <time>2011-09-08T20:59:52Z</time>
      </trkpt>
      <trkpt lat="43.61301" lon="7.03392">
        <ele>160</ele>
        <time>2011-09-08T20:59:56Z</time>
      </trkpt>
      <trkpt lat="43.61306" lon="7.03417">
        <ele>160</ele>
        <time>2011-09-08T21:00:00Z</time>
      </trkpt>
      <trkpt lat="43.61309" lon="7.03443">
        <ele>161</ele>
        <time>2011-09-08T21:00:04Z</time>
      </trkpt>
      <trkpt lat="43.61315" lon="7.03557">
        <ele>161</ele>
        <time>2011-09-08T21:00:17Z</time>
      </trkpt>
      <trkpt lat="43.61316" lon="7.03581">
        <ele>159</ele>
        <time>2011-09-08T21:00:19Z</time>
      </trkpt>
      <trkpt lat="43.61328" lon="7.03608">
        <ele>157</ele>
        <time>2011-09-08T21:00:22Z</time>
      </trkpt>
      <trkpt lat="43.61345" lon="7.03621">
        <ele>157</ele>
        <time>2011-09-08T21:00:25Z</time>
      </trkpt>
      <trkpt lat="43.61362" lon="7.03635">
        <ele>157</ele>
        <time>2011-09-08T21:00:28Z</time>
      </trkpt>
      <trkpt lat="43.6138" lon="7.03648">
        <ele>156</ele>
        <time>2011-09-08T21:00:31Z</time>
      </trkpt>
      <trkpt lat="43.61425" lon="7.03633">
        <ele>156</ele>
        <time>2011-09-08T21:00:38Z</time>
      </trkpt>
      <trkpt lat="43.61462" lon="7.03608">
        <ele>154</ele>
        <time>2011-09-08T21:00:44Z</time>
      </trkpt>
      <trkpt lat="43.61477" lon="7.03603">
        <ele>154</ele>
        <time>2011-09-08T21:00:46Z</time>
      </trkpt>
      <trkpt lat="43.6151" lon="7.03612">
        <ele>152</ele>
        <time>2011-09-08T21:00:50Z</time>
      </trkpt>
      <trkpt lat="43.61617" lon="7.03717">
        <ele>153</ele>
        <time>2011-09-08T21:01:10Z</time>
      </trkpt>
      <trkpt lat="43.6164" lon="7.03765">
        <ele>151</ele>
        <time>2011-09-08T21:01:17Z</time>
      </trkpt>
      <trkpt lat="43.6164" lon="7.03787">
        <ele>149</ele>
        <time>2011-09-08T21:01:20Z</time>
      </trkpt>
      <trkpt lat="43.61616" lon="7.03951">
        <ele>138</ele>
        <time>2011-09-08T21:01:42Z</time>
      </trkpt>
      <trkpt lat="43.61552" lon="7.041">
        <ele>127</ele>
        <time>2011-09-08T21:02:05Z</time>
      </trkpt>
      <trkpt lat="43.61517" lon="7.04171">
        <ele>127</ele>
        <time>2011-09-08T21:02:16Z</time>
      </trkpt>
      <trkpt lat="43.61534" lon="7.0418">
        <ele>120</ele>
        <time>2011-09-08T21:02:32Z</time>
      </trkpt>
      <trkpt lat="43.61549" lon="7.04165">
        <ele>114</ele>
        <time>2011-09-08T21:02:47Z</time>
      </trkpt>
      <trkpt lat="43.61567" lon="7.04142">
        <ele>112</ele>
        <time>2011-09-08T21:02:59Z</time>
      </trkpt>
      <trkpt lat="43.61579" lon="7.04126">
        <ele>113</ele>
        <time>2011-09-08T21:03:10Z</time>
      </trkpt>
      <trkpt lat="43.6159" lon="7.04129">
        <ele>103</ele>
        <time>2011-09-08T21:06:24Z</time>
      </trkpt>
      <trkpt lat="43.61591" lon="7.04128">
        <ele>104</ele>
        <time>2011-09-08T21:08:35Z</time>
      </trkpt>
      <trkpt lat="43.61606" lon="7.04091">
        <ele>107</ele>
        <time>2011-09-08T21:11:41Z</time>
      </trkpt>
      <trkpt lat="43.61665" lon="7.03912">
        <ele>103</ele>
        <time>2011-09-08T21:11:56Z</time>
      </trkpt>
      <trkpt lat="43.61676" lon="7.0389">
        <ele>104</ele>
        <time>2011-09-08T21:11:58Z</time>
      </trkpt>
      <trkpt lat="43.61695" lon="7.03846">
        <ele>102</ele>
        <time>2011-09-08T21:12:02Z</time>
      </trkpt>
      <trkpt lat="43.61728" lon="7.03781">
        <ele>102</ele>
        <time>2011-09-08T21:12:08Z</time>
      </trkpt>
      <trkpt lat="43.61728" lon="7.03758">
        <ele>101</ele>
        <time>2011-09-08T21:12:10Z</time>
      </trkpt>
      <trkpt lat="43.61716" lon="7.03737">
        <ele>101</ele>
        <time>2011-09-08T21:12:12Z</time>
      </trkpt>
      <trkpt lat="43.61702" lon="7.03727">
        <ele>100</ele>
        <time>2011-09-08T21:12:14Z</time>
      </trkpt>
      <trkpt lat="43.61681" lon="7.03719">
        <ele>98</ele>
        <time>2011-09-08T21:12:17Z</time>
      </trkpt>
      <trkpt lat="43.61658" lon="7.03705">
        <ele>98</ele>
        <time>2011-09-08T21:12:20Z</time>
      </trkpt>
      <trkpt lat="43.61649" lon="7.03694">
        <ele>99</ele>
        <time>2011-09-08T21:12:21Z</time>
      </trkpt>
      <trkpt lat="43.61603" lon="7.03629">
        <ele>99</ele>
        <time>2011-09-08T21:12:26Z</time>
      </trkpt>
      <trkpt lat="43.61594" lon="7.03617">
        <ele>98</ele>
        <time>2011-09-08T21:12:27Z</time>
      </trkpt>
      <trkpt lat="43.61546" lon="7.03545">
        <ele>98</ele>
        <time>2011-09-08T21:12:32Z</time>
      </trkpt>
      <trkpt lat="43.61539" lon="7.03528">
        <ele>99</ele>
        <time>2011-09-08T21:12:33Z</time>
      </trkpt>
      <trkpt lat="43.61531" lon="7.03511">
        <ele>98</ele>
        <time>2011-09-08T21:12:34Z</time>
      </trkpt>
      <trkpt lat="43.61523" lon="7.03494">
        <ele>99</ele>
        <time>2011-09-08T21:12:35Z</time>
      </trkpt>
      <trkpt lat="43.6148" lon="7.03414">
        <ele>99</ele>
        <time>2011-09-08T21:12:40Z</time>
      </trkpt>
      <trkpt lat="43.6147" lon="7.03398">
        <ele>100</ele>
        <time>2011-09-08T21:12:41Z</time>
      </trkpt>
      <trkpt lat="43.6145" lon="7.03369">
        <ele>100</ele>
        <time>2011-09-08T21:12:43Z</time>
      </trkpt>
      <trkpt lat="43.61439" lon="7.03354">
        <ele>101</ele>
        <time>2011-09-08T21:12:44Z</time>
      </trkpt>
      <trkpt lat="43.61408" lon="7.0331">
        <ele>101</ele>
        <time>2011-09-08T21:12:47Z</time>
      </trkpt>
      <trkpt lat="43.61398" lon="7.03295">
        <ele>100</ele>
        <time>2011-09-08T21:12:48Z</time>
      </trkpt>
      <trkpt lat="43.61371" lon="7.03244">
        <ele>101</ele>
        <time>2011-09-08T21:12:51Z</time>
      </trkpt>
      <trkpt lat="43.61344" lon="7.0314">
        <ele>103</ele>
        <time>2011-09-08T21:12:56Z</time>
      </trkpt>
      <trkpt lat="43.61201" lon="7.02435">
        <ele>121</ele>
        <time>2011-09-08T21:13:27Z</time>
      </trkpt>
      <trkpt lat="43.61194" lon="7.0239">
        <ele>121</ele>
        <time>2011-09-08T21:13:29Z</time>
      </trkpt>
      <trkpt lat="43.61191" lon="7.02366">
        <ele>122</ele>
        <time>2011-09-08T21:13:30Z</time>
      </trkpt>
      <trkpt lat="43.61149" lon="7.02157">
        <ele>123</ele>
        <time>2011-09-08T21:13:39Z</time>
      </trkpt>
      <trkpt lat="43.61067" lon="7.02052">
        <ele>124</ele>
        <time>2011-09-08T21:13:50Z</time>
      </trkpt>
      <trkpt lat="43.61059" lon="7.02044">
        <ele>125</ele>
        <time>2011-09-08T21:13:51Z</time>
      </trkpt>
      <trkpt lat="43.61053" lon="7.02034">
        <ele>124</ele>
        <time>2011-09-08T21:13:52Z</time>
      </trkpt>
      <trkpt lat="43.61042" lon="7.01971">
        <ele>121</ele>
        <time>2011-09-08T21:13:56Z</time>
      </trkpt>
      <trkpt lat="43.61049" lon="7.01935">
        <ele>121</ele>
        <time>2011-09-08T21:13:58Z</time>
      </trkpt>
      <trkpt lat="43.61057" lon="7.01918">
        <ele>120</ele>
        <time>2011-09-08T21:13:59Z</time>
      </trkpt>
      <trkpt lat="43.61116" lon="7.0178">
        <ele>118</ele>
        <time>2011-09-08T21:14:07Z</time>
      </trkpt>
      <trkpt lat="43.61121" lon="7.01767">
        <ele>119</ele>
        <time>2011-09-08T21:14:08Z</time>
      </trkpt>
      <trkpt lat="43.61178" lon="7.01665">
        <ele>120</ele>
        <time>2011-09-08T21:14:16Z</time>
      </trkpt>
      <trkpt lat="43.61187" lon="7.0165">
        <ele>119</ele>
        <time>2011-09-08T21:14:17Z</time>
      </trkpt>
      <trkpt lat="43.61215" lon="7.01604">
        <ele>119</ele>
        <time>2011-09-08T21:14:20Z</time>
      </trkpt>
      <trkpt lat="43.6124" lon="7.01553">
        <ele>122</ele>
        <time>2011-09-08T21:14:23Z</time>
      </trkpt>
      <trkpt lat="43.6125" lon="7.01513">
        <ele>124</ele>
        <time>2011-09-08T21:14:25Z</time>
      </trkpt>
      <trkpt lat="43.61239" lon="7.01432">
        <ele>124</ele>
        <time>2011-09-08T21:14:29Z</time>
      </trkpt>
      <trkpt lat="43.61233" lon="7.01414">
        <ele>124</ele>
        <time>2011-09-08T21:14:30Z</time>
      </trkpt>
      <trkpt lat="43.61207" lon="7.01368">
        <ele>127</ele>
        <time>2011-09-08T21:14:33Z</time>
      </trkpt>
      <trkpt lat="43.6118" lon="7.01328">
        <ele>127</ele>
        <time>2011-09-08T21:14:36Z</time>
      </trkpt>
      <trkpt lat="43.61171" lon="7.01317">
        <ele>128</ele>
        <time>2011-09-08T21:14:37Z</time>
      </trkpt>
      <trkpt lat="43.60889" lon="7.0101">
        <ele>131</ele>
        <time>2011-09-08T21:15:04Z</time>
      </trkpt>
      <trkpt lat="43.60877" lon="7.00977">
        <ele>134</ele>
        <time>2011-09-08T21:15:08Z</time>
      </trkpt>
      <trkpt lat="43.6086" lon="7.00967">
        <ele>135</ele>
        <time>2011-09-08T21:15:11Z</time>
      </trkpt>
      <trkpt lat="43.60825" lon="7.00983">
        <ele>138</ele>
        <time>2011-09-08T21:15:16Z</time>
      </trkpt>
      <trkpt lat="43.60592" lon="7.01186">
        <ele>143</ele>
        <time>2011-09-08T21:15:34Z</time>
      </trkpt>
      <trkpt lat="43.60569" lon="7.01168">
        <ele>143</ele>
        <time>2011-09-08T21:15:36Z</time>
      </trkpt>
      <trkpt lat="43.60553" lon="7.0114">
        <ele>143</ele>
        <time>2011-09-08T21:15:38Z</time>
      </trkpt>
      <trkpt lat="43.60526" lon="7.0099">
        <ele>142</ele>
        <time>2011-09-08T21:15:45Z</time>
      </trkpt>
      <trkpt lat="43.60521" lon="7.00969">
        <ele>143</ele>
        <time>2011-09-08T21:15:46Z</time>
      </trkpt>
      <trkpt lat="43.60483" lon="7.0081">
        <ele>142</ele>
        <time>2011-09-08T21:15:57Z</time>
      </trkpt>
      <trkpt lat="43.60467" lon="7.00802">
        <ele>141</ele>
        <time>2011-09-08T21:16:01Z</time>
      </trkpt>
      <trkpt lat="43.60459" lon="7.00829">
        <ele>141</ele>
        <time>2011-09-08T21:16:04Z</time>
      </trkpt>
      <trkpt lat="43.60443" lon="7.00871">
        <ele>142</ele>
        <time>2011-09-08T21:16:08Z</time>
      </trkpt>
      <trkpt lat="43.60437" lon="7.00882">
        <ele>143</ele>
        <time>2011-09-08T21:16:09Z</time>
      </trkpt>
      <trkpt lat="43.60238" lon="7.01403">
        <ele>148</ele>
        <time>2011-09-08T21:16:40Z</time>
      </trkpt>
      <trkpt lat="43.60231" lon="7.01425">
        <ele>148</ele>
        <time>2011-09-08T21:16:42Z</time>
      </trkpt>
      <trkpt lat="43.60216" lon="7.01442">
        <ele>148</ele>
        <time>2011-09-08T21:16:45Z</time>
      </trkpt>
      <trkpt lat="43.60206" lon="7.01414">
        <ele>148</ele>
        <time>2011-09-08T21:16:48Z</time>
      </trkpt>
      <trkpt lat="43.60206" lon="7.01384">
        <ele>148</ele>
        <time>2011-09-08T21:16:50Z</time>
      </trkpt>
      <trkpt lat="43.60206" lon="7.01369">
        <ele>147</ele>
        <time>2011-09-08T21:16:51Z</time>
      </trkpt>
      <trkpt lat="43.60205" lon="7.01315">
        <ele>147</ele>
        <time>2011-09-08T21:16:54Z</time>
      </trkpt>
      <trkpt lat="43.60205" lon="7.01296">
        <ele>146</ele>
        <time>2011-09-08T21:16:55Z</time>
      </trkpt>
      <trkpt lat="43.60203" lon="7.01256">
        <ele>146</ele>
        <time>2011-09-08T21:16:57Z</time>
      </trkpt>
      <trkpt lat="43.60202" lon="7.01235">
        <ele>145</ele>
        <time>2011-09-08T21:16:58Z</time>
      </trkpt>
      <trkpt lat="43.602" lon="7.0117">
        <ele>145</ele>
        <time>2011-09-08T21:17:01Z</time>
      </trkpt>
      <trkpt lat="43.60199" lon="7.01148">
        <ele>144</ele>
        <time>2011-09-08T21:17:02Z</time>
      </trkpt>
      <trkpt lat="43.60197" lon="7.01104">
        <ele>144</ele>
        <time>2011-09-08T21:17:04Z</time>
      </trkpt>
      <trkpt lat="43.60197" lon="7.01081">
        <ele>143</ele>
        <time>2011-09-08T21:17:05Z</time>
      </trkpt>
      <trkpt lat="43.60286" lon="7.00363">
        <ele>143</ele>
        <time>2011-09-08T21:17:35Z</time>
      </trkpt>
      <trkpt lat="43.60286" lon="7.00337">
        <ele>143</ele>
        <time>2011-09-08T21:17:36Z</time>
      </trkpt>
      <trkpt lat="43.60296" lon="7.00207">
        <ele>139</ele>
        <time>2011-09-08T21:17:42Z</time>
      </trkpt>
      <trkpt lat="43.60314" lon="7.0018">
        <ele>140</ele>
        <time>2011-09-08T21:17:44Z</time>
      </trkpt>
      <trkpt lat="43.60513" lon="6.99933">
        <ele>137</ele>
        <time>2011-09-08T21:18:00Z</time>
      </trkpt>
      <trkpt lat="43.60536" lon="6.99889">
        <ele>137</ele>
        <time>2011-09-08T21:18:02Z</time>
      </trkpt>
      <trkpt lat="43.60545" lon="6.99866">
        <ele>138</ele>
        <time>2011-09-08T21:18:03Z</time>
      </trkpt>
    </trkseg>
  </trk>
</gpx>